sensor_id;sensor_type;location;lat;lon;timestamp;temperature;humidity
21425;DHT22;10873;51.132;16.848;2023-04-01T00:02:11;24.10;54.70
21425;DHT22;10873;51.132;16.848;2023-04-01T00:04:37;24.10;54.70
21425;DHT22;10873;51.132;16.848;2023-04-01T00:07:05;24.10;54.70
21425;DHT22;10873;51.132;16.848;2023-04-01T00:09:31;24.10;54.70
21425;DHT22;10873;51.132;16.848;2023-04-01T00:11:57;24.10;54.70
21425;DHT22;10873;51.132;16.848;2023-04-01T00:14:23;24.10;54.70
21425;DHT22;10873;51.132;16.848;2023-04-01T00:16:49;24.20;54.70
21425;DHT22;10873;51.132;16.848;2023-04-01T00:19:15;24.20;54.70
21425;DHT22;10873;51.132;16.848;2023-04-01T00:21:41;24.20;54.70
21425;DHT22;10873;51.132;16.848;2023-04-01T00:24:09;24.20;54.60
21425;DHT22;10873;51.132;16.848;2023-04-01T00:26:36;24.20;54.60
21425;DHT22;10873;51.132;16.848;2023-04-01T00:29:02;24.20;54.60
21425;DHT22;10873;51.132;16.848;2023-04-01T00:31:28;24.20;54.60
21425;DHT22;10873;51.132;16.848;2023-04-01T00:33:55;24.30;54.60
21425;DHT22;10873;51.132;16.848;2023-04-01T00:36:22;24.20;54.50
21425;DHT22;10873;51.132;16.848;2023-04-01T00:38:49;24.30;54.50
21425;DHT22;10873;51.132;16.848;2023-04-01T00:41:18;24.30;54.50
21425;DHT22;10873;51.132;16.848;2023-04-01T00:43:47;24.30;54.40
21425;DHT22;10873;51.132;16.848;2023-04-01T00:46:14;24.30;54.40
21425;DHT22;10873;51.132;16.848;2023-04-01T00:48:42;24.30;54.40
21425;DHT22;10873;51.132;16.848;2023-04-01T00:51:11;24.30;55.00
21425;DHT22;10873;51.132;16.848;2023-04-01T00:53:43;24.30;54.30
21425;DHT22;10873;51.132;16.848;2023-04-01T00:56:12;24.30;54.30
21425;DHT22;10873;51.132;16.848;2023-04-01T00:58:46;24.30;54.30
21425;DHT22;10873;51.132;16.848;2023-04-01T01:01:14;24.30;54.30
21425;DHT22;10873;51.132;16.848;2023-04-01T01:03:41;24.30;54.30
21425;DHT22;10873;51.132;16.848;2023-04-01T01:06:22;24.30;54.40
21425;DHT22;10873;51.132;16.848;2023-04-01T01:09:03;24.30;54.40
21425;DHT22;10873;51.132;16.848;2023-04-01T01:11:36;24.30;54.40
21425;DHT22;10873;51.132;16.848;2023-04-01T01:14:12;24.30;54.40
21425;DHT22;10873;51.132;16.848;2023-04-01T01:16:45;24.30;54.40
21425;DHT22;10873;51.132;16.848;2023-04-01T01:19:35;24.30;54.40
21425;DHT22;10873;51.132;16.848;2023-04-01T01:22:20;24.30;54.40
21425;DHT22;10873;51.132;16.848;2023-04-01T01:24:58;24.30;54.40
21425;DHT22;10873;51.132;16.848;2023-04-01T01:27:31;24.30;54.40
21425;DHT22;10873;51.132;16.848;2023-04-01T01:30:14;24.30;54.40
21425;DHT22;10873;51.132;16.848;2023-04-01T01:35:46;24.30;55.10
21425;DHT22;10873;51.132;16.848;2023-04-01T01:38:15;24.30;54.40
21425;DHT22;10873;51.132;16.848;2023-04-01T01:40:44;24.30;54.70
21425;DHT22;10873;51.132;16.848;2023-04-01T01:43:14;24.30;54.40
21425;DHT22;10873;51.132;16.848;2023-04-01T01:45:46;24.30;54.50
21425;DHT22;10873;51.132;16.848;2023-04-01T01:48:13;24.30;54.40
21425;DHT22;10873;51.132;16.848;2023-04-01T01:50:42;24.30;54.50
21425;DHT22;10873;51.132;16.848;2023-04-01T01:53:12;24.30;54.40
21425;DHT22;10873;51.132;16.848;2023-04-01T01:55:41;24.30;54.50
21425;DHT22;10873;51.132;16.848;2023-04-01T01:58:10;24.20;54.40
21425;DHT22;10873;51.132;16.848;2023-04-01T02:00:39;24.20;54.40
21425;DHT22;10873;51.132;16.848;2023-04-01T02:03:06;24.30;54.50
21425;DHT22;10873;51.132;16.848;2023-04-01T02:05:32;24.20;54.40
21425;DHT22;10873;51.132;16.848;2023-04-01T02:08:02;24.30;54.50
21425;DHT22;10873;51.132;16.848;2023-04-01T02:10:34;24.20;54.40
21425;DHT22;10873;51.132;16.848;2023-04-01T02:13:07;24.20;54.40
21425;DHT22;10873;51.132;16.848;2023-04-01T02:15:37;24.20;55.10
21425;DHT22;10873;51.132;16.848;2023-04-01T02:18:06;24.20;54.40
21425;DHT22;10873;51.132;16.848;2023-04-01T02:20:33;24.20;54.50
21425;DHT22;10873;51.132;16.848;2023-04-01T02:23:01;24.20;54.50
21425;DHT22;10873;51.132;16.848;2023-04-01T02:25:33;24.20;54.50
21425;DHT22;10873;51.132;16.848;2023-04-01T02:28:00;24.20;54.40
21425;DHT22;10873;51.132;16.848;2023-04-01T02:30:29;24.20;54.50
21425;DHT22;10873;51.132;16.848;2023-04-01T02:32:58;24.20;54.50
21425;DHT22;10873;51.132;16.848;2023-04-01T02:35:25;24.20;54.50
21425;DHT22;10873;51.132;16.848;2023-04-01T02:37:52;24.20;54.90
21425;DHT22;10873;51.132;16.848;2023-04-01T02:40:19;24.20;54.50
21425;DHT22;10873;51.132;16.848;2023-04-01T02:42:47;24.20;54.50
21425;DHT22;10873;51.132;16.848;2023-04-01T02:45:14;24.20;54.50
21425;DHT22;10873;51.132;16.848;2023-04-01T02:47:40;24.20;54.50
21425;DHT22;10873;51.132;16.848;2023-04-01T02:50:07;24.20;54.50
21425;DHT22;10873;51.132;16.848;2023-04-01T02:52:34;24.20;54.50
21425;DHT22;10873;51.132;16.848;2023-04-01T02:55:00;24.20;54.50
21425;DHT22;10873;51.132;16.848;2023-04-01T02:57:26;24.20;54.60
21425;DHT22;10873;51.132;16.848;2023-04-01T02:59:54;24.20;54.60
21425;DHT22;10873;51.132;16.848;2023-04-01T03:02:20;24.10;54.60
21425;DHT22;10873;51.132;16.848;2023-04-01T03:04:46;24.10;54.60
21425;DHT22;10873;51.132;16.848;2023-04-01T03:07:12;24.20;54.60
21425;DHT22;10873;51.132;16.848;2023-04-01T03:09:39;24.20;54.60
21425;DHT22;10873;51.132;16.848;2023-04-01T03:12:06;24.10;54.60
21425;DHT22;10873;51.132;16.848;2023-04-01T03:14:32;24.10;54.60
21425;DHT22;10873;51.132;16.848;2023-04-01T03:16:59;24.10;54.60
21425;DHT22;10873;51.132;16.848;2023-04-01T03:19:26;24.10;54.60
21425;DHT22;10873;51.132;16.848;2023-04-01T03:21:52;24.10;54.60
21425;DHT22;10873;51.132;16.848;2023-04-01T03:24:19;24.10;54.70
21425;DHT22;10873;51.132;16.848;2023-04-01T03:26:45;24.10;54.70
21425;DHT22;10873;51.132;16.848;2023-04-01T03:29:11;24.10;54.70
21425;DHT22;10873;51.132;16.848;2023-04-01T03:31:37;24.10;54.80
21425;DHT22;10873;51.132;16.848;2023-04-01T03:34:04;24.20;54.70
21425;DHT22;10873;51.132;16.848;2023-04-01T03:36:30;24.10;54.70
21425;DHT22;10873;51.132;16.848;2023-04-01T03:38:57;24.10;54.70
21425;DHT22;10873;51.132;16.848;2023-04-01T03:41:23;24.10;54.70
21425;DHT22;10873;51.132;16.848;2023-04-01T03:43:49;24.10;54.70
21425;DHT22;10873;51.132;16.848;2023-04-01T03:46:17;24.10;54.80
21425;DHT22;10873;51.132;16.848;2023-04-01T03:48:43;24.10;54.80
21425;DHT22;10873;51.132;16.848;2023-04-01T03:51:10;24.10;54.90
21425;DHT22;10873;51.132;16.848;2023-04-01T03:53:37;24.00;54.90
21425;DHT22;10873;51.132;16.848;2023-04-01T03:56:04;24.10;55.00
21425;DHT22;10873;51.132;16.848;2023-04-01T03:58:30;24.10;54.90
21425;DHT22;10873;51.132;16.848;2023-04-01T04:00:56;24.10;54.90
21425;DHT22;10873;51.132;16.848;2023-04-01T04:03:22;24.10;54.90
21425;DHT22;10873;51.132;16.848;2023-04-01T04:05:49;24.10;54.90
21425;DHT22;10873;51.132;16.848;2023-04-01T04:08:17;24.10;54.90
21425;DHT22;10873;51.132;16.848;2023-04-01T04:10:43;24.10;54.90
21425;DHT22;10873;51.132;16.848;2023-04-01T04:13:09;24.10;54.90
21425;DHT22;10873;51.132;16.848;2023-04-01T04:15:35;24.10;54.90
21425;DHT22;10873;51.132;16.848;2023-04-01T04:18:02;24.10;54.90
21425;DHT22;10873;51.132;16.848;2023-04-01T04:20:27;24.10;55.00
21425;DHT22;10873;51.132;16.848;2023-04-01T04:22:54;24.10;55.00
21425;DHT22;10873;51.132;16.848;2023-04-01T04:25:21;24.10;55.00
21425;DHT22;10873;51.132;16.848;2023-04-01T04:27:47;24.10;55.00
21425;DHT22;10873;51.132;16.848;2023-04-01T04:30:13;24.10;55.00
21425;DHT22;10873;51.132;16.848;2023-04-01T04:32:39;24.10;55.00
21425;DHT22;10873;51.132;16.848;2023-04-01T04:35:07;24.00;54.90
21425;DHT22;10873;51.132;16.848;2023-04-01T04:37:33;24.10;55.00
21425;DHT22;10873;51.132;16.848;2023-04-01T04:40:00;24.10;55.00
21425;DHT22;10873;51.132;16.848;2023-04-01T04:42:27;24.10;54.90
21425;DHT22;10873;51.132;16.848;2023-04-01T04:44:53;24.10;55.00
21425;DHT22;10873;51.132;16.848;2023-04-01T04:47:19;24.10;55.00
21425;DHT22;10873;51.132;16.848;2023-04-01T04:49:45;24.10;55.00
21425;DHT22;10873;51.132;16.848;2023-04-01T04:52:11;24.10;55.10
21425;DHT22;10873;51.132;16.848;2023-04-01T04:54:37;24.10;55.10
21425;DHT22;10873;51.132;16.848;2023-04-01T04:57:04;24.10;55.00
21425;DHT22;10873;51.132;16.848;2023-04-01T04:59:31;24.00;55.00
21425;DHT22;10873;51.132;16.848;2023-04-01T05:01:57;24.10;55.10
21425;DHT22;10873;51.132;16.848;2023-04-01T05:04:24;24.10;55.00
21425;DHT22;10873;51.132;16.848;2023-04-01T05:06:50;24.10;55.00
21425;DHT22;10873;51.132;16.848;2023-04-01T05:09:17;24.10;55.00
21425;DHT22;10873;51.132;16.848;2023-04-01T05:11:43;24.10;55.10
21425;DHT22;10873;51.132;16.848;2023-04-01T05:14:13;24.10;55.10
21425;DHT22;10873;51.132;16.848;2023-04-01T05:16:40;24.10;55.10
21425;DHT22;10873;51.132;16.848;2023-04-01T05:19:06;24.10;55.40
21425;DHT22;10873;51.132;16.848;2023-04-01T05:21:32;24.10;56.20
21425;DHT22;10873;51.132;16.848;2023-04-01T05:23:58;24.10;56.30
21425;DHT22;10873;51.132;16.848;2023-04-01T05:26:24;24.10;56.40
21425;DHT22;10873;51.132;16.848;2023-04-01T05:28:50;24.10;56.40
21425;DHT22;10873;51.132;16.848;2023-04-01T05:31:17;24.10;56.50
21425;DHT22;10873;51.132;16.848;2023-04-01T05:33:44;24.10;56.60
21425;DHT22;10873;51.132;16.848;2023-04-01T05:36:12;24.00;56.60
21425;DHT22;10873;51.132;16.848;2023-04-01T05:38:39;24.00;56.70
21425;DHT22;10873;51.132;16.848;2023-04-01T05:41:05;24.00;56.70
21425;DHT22;10873;51.132;16.848;2023-04-01T05:43:32;24.00;56.80
21425;DHT22;10873;51.132;16.848;2023-04-01T05:46:01;24.00;57.00
21425;DHT22;10873;51.132;16.848;2023-04-01T05:48:27;24.00;57.00
21425;DHT22;10873;51.132;16.848;2023-04-01T05:50:54;24.00;57.10
21425;DHT22;10873;51.132;16.848;2023-04-01T05:53:20;24.00;57.30
21425;DHT22;10873;51.132;16.848;2023-04-01T05:55:46;24.00;57.30
21425;DHT22;10873;51.132;16.848;2023-04-01T05:58:12;24.00;57.40
21425;DHT22;10873;51.132;16.848;2023-04-01T06:00:39;24.00;57.50
21425;DHT22;10873;51.132;16.848;2023-04-01T06:03:05;24.00;57.50
21425;DHT22;10873;51.132;16.848;2023-04-01T06:05:38;24.00;57.70
21425;DHT22;10873;51.132;16.848;2023-04-01T06:08:10;24.00;57.80
21425;DHT22;10873;51.132;16.848;2023-04-01T06:10:55;24.00;58.00
21425;DHT22;10873;51.132;16.848;2023-04-01T06:13:39;24.00;58.20
21425;DHT22;10873;51.132;16.848;2023-04-01T06:16:18;24.00;58.40
21425;DHT22;10873;51.132;16.848;2023-04-01T06:19:03;24.00;58.50
21425;DHT22;10873;51.132;16.848;2023-04-01T06:27:14;24.00;58.60
21425;DHT22;10873;51.132;16.848;2023-04-01T06:29:56;23.90;58.60
21425;DHT22;10873;51.132;16.848;2023-04-01T06:32:47;23.90;58.60
21425;DHT22;10873;51.132;16.848;2023-04-01T06:35:29;23.90;58.70
21425;DHT22;10873;51.132;16.848;2023-04-01T06:38:15;23.90;58.60
21425;DHT22;10873;51.132;16.848;2023-04-01T06:40:57;23.90;58.90
21425;DHT22;10873;51.132;16.848;2023-04-01T06:43:37;23.90;58.70
21425;DHT22;10873;51.132;16.848;2023-04-01T06:46:11;23.90;58.50
21425;DHT22;10873;51.132;16.848;2023-04-01T06:49:00;24.00;58.40
21425;DHT22;10873;51.132;16.848;2023-04-01T06:51:37;24.00;58.80
21425;DHT22;10873;51.132;16.848;2023-04-01T06:54:10;24.00;58.10
21425;DHT22;10873;51.132;16.848;2023-04-01T06:56:41;24.00;58.00
21425;DHT22;10873;51.132;16.848;2023-04-01T06:59:12;24.10;57.90
21425;DHT22;10873;51.132;16.848;2023-04-01T07:01:39;24.10;57.90
21425;DHT22;10873;51.132;16.848;2023-04-01T07:04:13;24.10;58.10
21425;DHT22;10873;51.132;16.848;2023-04-01T07:06:44;24.20;58.30
21425;DHT22;10873;51.132;16.848;2023-04-01T07:09:12;24.20;58.40
21425;DHT22;10873;51.132;16.848;2023-04-01T07:11:42;24.20;58.60
21425;DHT22;10873;51.132;16.848;2023-04-01T07:14:15;24.20;58.70
21425;DHT22;10873;51.132;16.848;2023-04-01T07:16:46;24.20;58.70
21425;DHT22;10873;51.132;16.848;2023-04-01T07:19:20;24.20;58.70
21425;DHT22;10873;51.132;16.848;2023-04-01T07:21:49;24.20;58.80
21425;DHT22;10873;51.132;16.848;2023-04-01T07:24:21;24.20;58.80
21425;DHT22;10873;51.132;16.848;2023-04-01T07:26:53;24.20;58.90
21425;DHT22;10873;51.132;16.848;2023-04-01T07:29:20;24.20;58.90
21425;DHT22;10873;51.132;16.848;2023-04-01T07:34:44;24.30;59.00
21425;DHT22;10873;51.132;16.848;2023-04-01T07:37:16;24.30;59.00
21425;DHT22;10873;51.132;16.848;2023-04-01T07:39:49;24.30;59.00
21425;DHT22;10873;51.132;16.848;2023-04-01T07:42:26;24.30;59.40
21425;DHT22;10873;51.132;16.848;2023-04-01T07:45:05;24.30;59.60
21425;DHT22;10873;51.132;16.848;2023-04-01T07:47:45;24.30;59.70
21425;DHT22;10873;51.132;16.848;2023-04-01T07:50:21;24.30;59.60
21425;DHT22;10873;51.132;16.848;2023-04-01T07:53:00;24.40;59.60
21425;DHT22;10873;51.132;16.848;2023-04-01T07:55:32;24.30;59.40
21425;DHT22;10873;51.132;16.848;2023-04-01T07:58:10;24.30;59.30
21425;DHT22;10873;51.132;16.848;2023-04-01T08:00:42;24.30;59.20
21425;DHT22;10873;51.132;16.848;2023-04-01T08:06:12;24.30;59.00
21425;DHT22;10873;51.132;16.848;2023-04-01T08:08:47;24.40;59.00
21425;DHT22;10873;51.132;16.848;2023-04-01T08:11:29;24.30;58.90
21425;DHT22;10873;51.132;16.848;2023-04-01T08:14:05;24.30;58.90
21425;DHT22;10873;51.132;16.848;2023-04-01T08:16:40;24.30;58.90
21425;DHT22;10873;51.132;16.848;2023-04-01T08:19:15;24.30;58.80
21425;DHT22;10873;51.132;16.848;2023-04-01T08:21:49;24.30;58.70
21425;DHT22;10873;51.132;16.848;2023-04-01T08:24:22;24.30;58.60
21425;DHT22;10873;51.132;16.848;2023-04-01T08:26:53;24.30;58.50
21425;DHT22;10873;51.132;16.848;2023-04-01T08:29:26;24.30;58.40
21425;DHT22;10873;51.132;16.848;2023-04-01T08:32:06;24.30;58.40
21425;DHT22;10873;51.132;16.848;2023-04-01T08:34:37;24.30;58.20
21425;DHT22;10873;51.132;16.848;2023-04-01T08:37:06;24.30;58.30
21425;DHT22;10873;51.132;16.848;2023-04-01T08:39:35;24.30;58.30
21425;DHT22;10873;51.132;16.848;2023-04-01T08:45:33;24.30;58.20
21425;DHT22;10873;51.132;16.848;2023-04-01T08:48:23;24.30;58.20
21425;DHT22;10873;51.132;16.848;2023-04-01T08:51:15;24.30;58.20
21425;DHT22;10873;51.132;16.848;2023-04-01T08:54:02;24.30;58.10
21425;DHT22;10873;51.132;16.848;2023-04-01T08:56:34;24.30;58.10
21425;DHT22;10873;51.132;16.848;2023-04-01T08:59:30;24.30;58.10
21425;DHT22;10873;51.132;16.848;2023-04-01T09:02:30;24.30;58.10
21425;DHT22;10873;51.132;16.848;2023-04-01T09:05:43;24.30;58.10
21425;DHT22;10873;51.132;16.848;2023-04-01T09:08:36;24.30;58.10
21425;DHT22;10873;51.132;16.848;2023-04-01T09:11:16;24.30;58.00
21425;DHT22;10873;51.132;16.848;2023-04-01T09:14:23;24.30;58.00
21425;DHT22;10873;51.132;16.848;2023-04-01T09:17:18;24.30;58.00
21425;DHT22;10873;51.132;16.848;2023-04-01T09:20:03;24.30;57.90
21425;DHT22;10873;51.132;16.848;2023-04-01T09:22:47;24.30;58.00
21425;DHT22;10873;51.132;16.848;2023-04-01T09:25:46;24.30;58.00
21425;DHT22;10873;51.132;16.848;2023-04-01T09:28:18;24.30;59.60
21425;DHT22;10873;51.132;16.848;2023-04-01T09:30:59;24.30;60.10
21425;DHT22;10873;51.132;16.848;2023-04-01T09:36:38;24.30;60.90
21425;DHT22;10873;51.132;16.848;2023-04-01T09:39:18;24.30;60.90
21425;DHT22;10873;51.132;16.848;2023-04-01T09:42:14;24.40;61.50
21425;DHT22;10873;51.132;16.848;2023-04-01T09:44:46;24.40;61.70
21425;DHT22;10873;51.132;16.848;2023-04-01T09:47:25;24.50;62.10
21425;DHT22;10873;51.132;16.848;2023-04-01T09:50:06;24.60;64.00
21425;DHT22;10873;51.132;16.848;2023-04-01T09:52:46;24.70;67.60
21425;DHT22;10873;51.132;16.848;2023-04-01T09:55:28;25.00;69.00
21425;DHT22;10873;51.132;16.848;2023-04-01T10:01:33;25.60;69.80
21425;DHT22;10873;51.132;16.848;2023-04-01T10:04:50;26.10;70.20
21425;DHT22;10873;51.132;16.848;2023-04-01T10:07:56;26.60;70.00
21425;DHT22;10873;51.132;16.848;2023-04-01T10:10:45;27.10;69.90
21425;DHT22;10873;51.132;16.848;2023-04-01T10:19:26;28.70;68.00
21425;DHT22;10873;51.132;16.848;2023-04-01T10:22:17;29.20;67.10
21425;DHT22;10873;51.132;16.848;2023-04-01T10:25:14;29.60;66.10
21425;DHT22;10873;51.132;16.848;2023-04-01T10:30:59;29.50;59.10
21425;DHT22;10873;51.132;16.848;2023-04-01T10:36:46;29.50;57.50
21425;DHT22;10873;51.132;16.848;2023-04-01T10:39:38;29.70;56.50
21425;DHT22;10873;51.132;16.848;2023-04-01T10:42:35;29.80;56.80
21425;DHT22;10873;51.132;16.848;2023-04-01T10:45:35;29.90;56.10
21425;DHT22;10873;51.132;16.848;2023-04-01T10:48:36;29.90;55.50
21425;DHT22;10873;51.132;16.848;2023-04-01T10:51:16;30.00;55.00
21425;DHT22;10873;51.132;16.848;2023-04-01T10:54:08;30.10;54.60
21425;DHT22;10873;51.132;16.848;2023-04-01T10:56:45;30.10;54.30
21425;DHT22;10873;51.132;16.848;2023-04-01T10:59:51;30.10;53.80
21425;DHT22;10873;51.132;16.848;2023-04-01T11:02:53;30.20;53.40
21425;DHT22;10873;51.132;16.848;2023-04-01T11:09:11;30.10;52.30
21425;DHT22;10873;51.132;16.848;2023-04-01T11:15:31;30.10;51.90
21425;DHT22;10873;51.132;16.848;2023-04-01T11:23:54;29.40;52.90
21425;DHT22;10873;51.132;16.848;2023-04-01T11:26:33;29.00;54.30
21425;DHT22;10873;51.132;16.848;2023-04-01T11:29:19;28.60;54.30
21425;DHT22;10873;51.132;16.848;2023-04-01T11:32:02;28.20;54.10
21425;DHT22;10873;51.132;16.848;2023-04-01T11:34:55;27.90;53.80
21425;DHT22;10873;51.132;16.848;2023-04-01T11:37:35;27.60;53.50
21425;DHT22;10873;51.132;16.848;2023-04-01T11:42:40;27.20;53.60
21425;DHT22;10873;51.132;16.848;2023-04-01T11:48:23;26.80;54.00
21425;DHT22;10873;51.132;16.848;2023-04-01T11:51:10;26.60;54.30
21425;DHT22;10873;51.132;16.848;2023-04-01T11:53:47;26.50;54.50
21425;DHT22;10873;51.132;16.848;2023-04-01T11:59:47;26.20;55.00
21425;DHT22;10873;51.132;16.848;2023-04-01T12:02:23;26.10;55.40
21425;DHT22;10873;51.132;16.848;2023-04-01T12:05:00;26.10;56.00
21425;DHT22;10873;51.132;16.848;2023-04-01T12:07:47;26.00;56.30
21425;DHT22;10873;51.132;16.848;2023-04-01T12:10:19;25.90;56.60
21425;DHT22;10873;51.132;16.848;2023-04-01T12:12:54;25.80;56.90
21425;DHT22;10873;51.132;16.848;2023-04-01T12:15:31;25.70;57.00
21425;DHT22;10873;51.132;16.848;2023-04-01T12:18:05;25.60;57.40
21425;DHT22;10873;51.132;16.848;2023-04-01T12:20:48;25.50;57.50
21425;DHT22;10873;51.132;16.848;2023-04-01T12:23:32;25.50;57.70
21425;DHT22;10873;51.132;16.848;2023-04-01T12:26:29;25.40;57.90
21425;DHT22;10873;51.132;16.848;2023-04-01T12:29:11;25.30;57.90
21425;DHT22;10873;51.132;16.848;2023-04-01T12:31:46;25.30;58.00
21425;DHT22;10873;51.132;16.848;2023-04-01T12:34:32;25.20;58.10
21425;DHT22;10873;51.132;16.848;2023-04-01T12:37:06;25.10;57.90
21425;DHT22;10873;51.132;16.848;2023-04-01T12:42:39;25.00;58.30
21425;DHT22;10873;51.132;16.848;2023-04-01T12:45:28;24.90;58.50
21425;DHT22;10873;51.132;16.848;2023-04-01T12:54:01;24.70;58.80
21425;DHT22;10873;51.132;16.848;2023-04-01T12:56:40;24.70;58.90
21425;DHT22;10873;51.132;16.848;2023-04-01T13:02:12;24.60;58.80
21425;DHT22;10873;51.132;16.848;2023-04-01T13:05:15;24.60;59.00
21425;DHT22;10873;51.132;16.848;2023-04-01T13:08:00;24.60;59.00
21425;DHT22;10873;51.132;16.848;2023-04-01T13:10:42;24.50;58.80
21425;DHT22;10873;51.132;16.848;2023-04-01T13:13:34;24.50;58.80
21425;DHT22;10873;51.132;16.848;2023-04-01T13:16:08;24.50;59.00
21425;DHT22;10873;51.132;16.848;2023-04-01T13:18:41;24.50;58.90
21425;DHT22;10873;51.132;16.848;2023-04-01T13:21:16;24.50;58.90
21425;DHT22;10873;51.132;16.848;2023-04-01T13:23:54;24.50;58.90
21425;DHT22;10873;51.132;16.848;2023-04-01T13:26:28;24.40;59.10
21425;DHT22;10873;51.132;16.848;2023-04-01T13:29:02;24.40;59.20
21425;DHT22;10873;51.132;16.848;2023-04-01T13:31:38;24.40;59.30
21425;DHT22;10873;51.132;16.848;2023-04-01T13:34:28;24.30;59.30
21425;DHT22;10873;51.132;16.848;2023-04-01T13:37:04;24.30;59.20
21425;DHT22;10873;51.132;16.848;2023-04-01T13:39:48;24.30;59.00
21425;DHT22;10873;51.132;16.848;2023-04-01T13:42:23;24.20;59.40
21425;DHT22;10873;51.132;16.848;2023-04-01T13:44:55;24.20;58.70
21425;DHT22;10873;51.132;16.848;2023-04-01T13:47:34;24.10;58.40
21425;DHT22;10873;51.132;16.848;2023-04-01T13:53:35;24.00;58.90
21425;DHT22;10873;51.132;16.848;2023-04-01T13:56:15;24.00;58.90
21425;DHT22;10873;51.132;16.848;2023-04-01T13:59:02;24.00;59.00
21425;DHT22;10873;51.132;16.848;2023-04-01T14:01:35;24.10;59.10
21425;DHT22;10873;51.132;16.848;2023-04-01T14:04:16;24.10;59.10
21425;DHT22;10873;51.132;16.848;2023-04-01T14:06:54;24.10;59.20
21425;DHT22;10873;51.132;16.848;2023-04-01T14:09:44;24.10;59.20
21425;DHT22;10873;51.132;16.848;2023-04-01T14:12:19;24.10;59.20
21425;DHT22;10873;51.132;16.848;2023-04-01T14:18:01;24.10;59.20
21425;DHT22;10873;51.132;16.848;2023-04-01T14:20:38;24.10;59.20
21425;DHT22;10873;51.132;16.848;2023-04-01T14:23:21;24.10;59.30
21425;DHT22;10873;51.132;16.848;2023-04-01T14:26:07;24.10;59.20
21425;DHT22;10873;51.132;16.848;2023-04-01T14:28:42;24.10;59.20
21425;DHT22;10873;51.132;16.848;2023-04-01T14:31:30;24.10;59.20
21425;DHT22;10873;51.132;16.848;2023-04-01T14:34:06;24.00;59.20
21425;DHT22;10873;51.132;16.848;2023-04-01T14:36:43;24.10;59.20
21425;DHT22;10873;51.132;16.848;2023-04-01T14:42:31;24.00;59.20
21425;DHT22;10873;51.132;16.848;2023-04-01T14:45:17;24.00;59.20
21425;DHT22;10873;51.132;16.848;2023-04-01T14:47:53;24.00;59.20
21425;DHT22;10873;51.132;16.848;2023-04-01T14:50:21;24.00;59.20
21425;DHT22;10873;51.132;16.848;2023-04-01T14:52:58;24.00;59.20
21425;DHT22;10873;51.132;16.848;2023-04-01T14:55:32;24.00;59.20
21425;DHT22;10873;51.132;16.848;2023-04-01T14:58:04;24.00;59.10
21425;DHT22;10873;51.132;16.848;2023-04-01T15:00:47;24.00;59.10
21425;DHT22;10873;51.132;16.848;2023-04-01T15:03:20;24.00;59.10
21425;DHT22;10873;51.132;16.848;2023-04-01T15:05:52;24.10;59.10
21425;DHT22;10873;51.132;16.848;2023-04-01T15:08:23;24.00;59.10
21425;DHT22;10873;51.132;16.848;2023-04-01T15:11:04;24.00;59.10
21425;DHT22;10873;51.132;16.848;2023-04-01T15:16:36;24.00;59.20
21425;DHT22;10873;51.132;16.848;2023-04-01T15:19:14;24.10;59.20
21425;DHT22;10873;51.132;16.848;2023-04-01T15:22:01;24.10;59.20
21425;DHT22;10873;51.132;16.848;2023-04-01T15:24:40;24.10;59.20
21425;DHT22;10873;51.132;16.848;2023-04-01T15:27:17;24.10;59.10
21425;DHT22;10873;51.132;16.848;2023-04-01T15:30:16;24.10;59.70
21425;DHT22;10873;51.132;16.848;2023-04-01T15:32:54;24.10;59.00
21425;DHT22;10873;51.132;16.848;2023-04-01T15:35:34;24.20;58.90
21425;DHT22;10873;51.132;16.848;2023-04-01T15:38:09;24.20;59.00
21425;DHT22;10873;51.132;16.848;2023-04-01T15:40:42;24.20;59.00
21425;DHT22;10873;51.132;16.848;2023-04-01T15:43:20;24.20;59.00
21425;DHT22;10873;51.132;16.848;2023-04-01T15:45:54;24.20;58.90
21425;DHT22;10873;51.132;16.848;2023-04-01T15:48:41;24.20;58.90
21425;DHT22;10873;51.132;16.848;2023-04-01T15:54:51;24.20;58.90
21425;DHT22;10873;51.132;16.848;2023-04-01T15:57:25;24.20;58.90
21425;DHT22;10873;51.132;16.848;2023-04-01T16:00:02;24.20;58.80
21425;DHT22;10873;51.132;16.848;2023-04-01T16:02:34;24.20;58.80
21425;DHT22;10873;51.132;16.848;2023-04-01T16:05:06;24.20;58.70
21425;DHT22;10873;51.132;16.848;2023-04-01T16:07:48;24.10;58.70
21425;DHT22;10873;51.132;16.848;2023-04-01T16:10:38;24.10;58.60
21425;DHT22;10873;51.132;16.848;2023-04-01T16:13:27;24.00;59.30
21425;DHT22;10873;51.132;16.848;2023-04-01T16:15:59;24.00;58.90
21425;DHT22;10873;51.132;16.848;2023-04-01T16:21:36;24.00;58.60
21425;DHT22;10873;51.132;16.848;2023-04-01T16:24:10;24.00;58.50
21425;DHT22;10873;51.132;16.848;2023-04-01T16:26:44;24.00;58.40
21425;DHT22;10873;51.132;16.848;2023-04-01T16:29:22;24.00;58.40
21425;DHT22;10873;51.132;16.848;2023-04-01T16:31:54;24.00;58.30
21425;DHT22;10873;51.132;16.848;2023-04-01T16:34:26;24.00;58.30
21425;DHT22;10873;51.132;16.848;2023-04-01T16:36:58;24.00;58.30
21425;DHT22;10873;51.132;16.848;2023-04-01T16:39:36;24.00;58.50
21425;DHT22;10873;51.132;16.848;2023-04-01T16:42:20;23.90;58.20
21425;DHT22;10873;51.132;16.848;2023-04-01T16:44:54;24.00;58.30
21425;DHT22;10873;51.132;16.848;2023-04-01T16:47:22;24.00;58.30
21425;DHT22;10873;51.132;16.848;2023-04-01T16:49:52;24.00;58.20
21425;DHT22;10873;51.132;16.848;2023-04-01T16:52:35;24.00;58.30
21425;DHT22;10873;51.132;16.848;2023-04-01T16:55:15;24.00;58.30
21425;DHT22;10873;51.132;16.848;2023-04-01T16:57:46;24.00;58.40
21425;DHT22;10873;51.132;16.848;2023-04-01T17:00:20;24.00;58.20
21425;DHT22;10873;51.132;16.848;2023-04-01T17:02:52;24.00;58.20
21425;DHT22;10873;51.132;16.848;2023-04-01T17:05:36;24.00;58.20
21425;DHT22;10873;51.132;16.848;2023-04-01T17:08:13;24.00;58.10
21425;DHT22;10873;51.132;16.848;2023-04-01T17:10:51;24.10;58.20
21425;DHT22;10873;51.132;16.848;2023-04-01T17:13:29;24.10;58.10
21425;DHT22;10873;51.132;16.848;2023-04-01T17:16:16;24.10;58.00
21425;DHT22;10873;51.132;16.848;2023-04-01T17:18:53;24.20;57.90
21425;DHT22;10873;51.132;16.848;2023-04-01T17:21:38;24.20;57.90
21425;DHT22;10873;51.132;16.848;2023-04-01T17:24:21;24.20;57.90
21425;DHT22;10873;51.132;16.848;2023-04-01T17:26:57;24.20;57.90
21425;DHT22;10873;51.132;16.848;2023-04-01T17:29:34;24.20;57.90
21425;DHT22;10873;51.132;16.848;2023-04-01T17:32:09;24.20;57.70
21425;DHT22;10873;51.132;16.848;2023-04-01T17:34:45;24.20;57.70